sensor_id;sensor_type;location;lat;lon;timestamp;pressure;altitude;pressure_sealevel;temperature;humidity
53011;BME280;42803;55.762;38.084;2023-01-28T00:00:09;100243.69;;;-2.35;100.00
53011;BME280;42803;55.762;38.084;2023-01-28T00:02:39;100240.41;;;-2.34;100.00
53011;BME280;42803;55.762;38.084;2023-01-28T00:05:10;100237.13;;;-2.33;100.00
53011;BME280;42803;55.762;38.084;2023-01-28T00:07:39;100244.78;;;-2.33;100.00
53011;BME280;42803;55.762;38.084;2023-01-28T00:10:09;100244.09;;;-2.32;100.00
53011;BME280;42803;55.762;38.084;2023-01-28T00:12:39;100235.72;;;-2.31;100.00
53011;BME280;42803;55.762;38.084;2023-01-28T00:15:08;100240.81;;;-2.31;100.00
53011;BME280;42803;55.762;38.084;2023-01-28T00:17:38;100229.19;;;-2.29;100.00
53011;BME280;42803;55.762;38.084;2023-01-28T00:20:10;100237.56;;;-2.30;100.00
53011;BME280;42803;55.762;38.084;2023-01-28T00:22:39;100239.91;;;-2.31;100.00
53011;BME280;42803;55.762;38.084;2023-01-28T00:25:08;100245.50;;;-2.34;100.00
53011;BME280;42803;55.762;38.084;2023-01-28T00:27:38;100241.84;;;-2.36;100.00
53011;BME280;42803;55.762;38.084;2023-01-28T00:30:08;100242.75;;;-2.35;100.00
53011;BME280;42803;55.762;38.084;2023-01-28T00:32:38;100248.78;;;-2.35;100.00
53011;BME280;42803;55.762;38.084;2023-01-28T00:35:11;100242.97;;;-2.34;100.00
53011;BME280;42803;55.762;38.084;2023-01-28T00:37:41;100246.94;;;-2.36;100.00
53011;BME280;42803;55.762;38.084;2023-01-28T00:40:13;100244.41;;;-2.36;100.00
53011;BME280;42803;55.762;38.084;2023-01-28T00:42:42;100239.56;;;-2.40;100.00
53011;BME280;42803;55.762;38.084;2023-01-28T00:45:11;100253.47;;;-2.38;100.00
53011;BME280;42803;55.762;38.084;2023-01-28T00:47:40;100244.44;;;-2.41;100.00
53011;BME280;42803;55.762;38.084;2023-01-28T00:50:13;100247.94;;;-2.41;100.00
53011;BME280;42803;55.762;38.084;2023-01-28T00:52:42;100249.78;;;-2.40;100.00
53011;BME280;42803;55.762;38.084;2023-01-28T00:55:11;100249.56;;;-2.41;100.00
53011;BME280;42803;55.762;38.084;2023-01-28T00:57:41;100256.13;;;-2.43;100.00
53011;BME280;42803;55.762;38.084;2023-01-28T01:00:10;100250.72;;;-2.39;100.00
53011;BME280;42803;55.762;38.084;2023-01-28T01:02:41;100249.06;;;-2.39;100.00
53011;BME280;42803;55.762;38.084;2023-01-28T01:05:12;100255.53;;;-2.35;100.00
53011;BME280;42803;55.762;38.084;2023-01-28T01:07:42;100257.38;;;-2.34;100.00
53011;BME280;42803;55.762;38.084;2023-01-28T01:10:13;100258.59;;;-2.38;100.00
53011;BME280;42803;55.762;38.084;2023-01-28T01:12:44;100258.16;;;-2.41;100.00
53011;BME280;42803;55.762;38.084;2023-01-28T01:15:14;100263.78;;;-2.43;100.00
53011;BME280;42803;55.762;38.084;2023-01-28T01:17:45;100260.16;;;-2.51;100.00
53011;BME280;42803;55.762;38.084;2023-01-28T01:20:18;100262.28;;;-2.54;100.00
53011;BME280;42803;55.762;38.084;2023-01-28T01:22:47;100264.22;;;-2.59;100.00
53011;BME280;42803;55.762;38.084;2023-01-28T01:25:17;100265.41;;;-2.62;100.00
53011;BME280;42803;55.762;38.084;2023-01-28T01:27:48;100267.97;;;-2.62;100.00
53011;BME280;42803;55.762;38.084;2023-01-28T01:30:18;100264.50;;;-2.63;100.00
53011;BME280;42803;55.762;38.084;2023-01-28T01:32:48;100258.72;;;-2.67;100.00
53011;BME280;42803;55.762;38.084;2023-01-28T01:35:18;100261.28;;;-2.67;100.00
53011;BME280;42803;55.762;38.084;2023-01-28T01:37:47;100268.00;;;-2.68;100.00
53011;BME280;42803;55.762;38.084;2023-01-28T01:40:16;100265.91;;;-2.65;100.00
53011;BME280;42803;55.762;38.084;2023-01-28T01:42:45;100263.53;;;-2.63;100.00
53011;BME280;42803;55.762;38.084;2023-01-28T01:45:15;100252.41;;;-2.64;100.00
53011;BME280;42803;55.762;38.084;2023-01-28T01:47:47;100251.34;;;-2.72;100.00
53011;BME280;42803;55.762;38.084;2023-01-28T01:50:23;100251.56;;;-2.70;100.00
53011;BME280;42803;55.762;38.084;2023-01-28T01:53:00;100251.75;;;-2.68;100.00
53011;BME280;42803;55.762;38.084;2023-01-28T01:55:33;100253.41;;;-2.69;100.00
53011;BME280;42803;55.762;38.084;2023-01-28T01:58:07;100248.78;;;-2.72;100.00
53011;BME280;42803;55.762;38.084;2023-01-28T02:00:39;100252.34;;;-2.77;100.00
53011;BME280;42803;55.762;38.084;2023-01-28T02:03:10;100249.84;;;-2.82;100.00
53011;BME280;42803;55.762;38.084;2023-01-28T02:05:40;100252.81;;;-2.79;100.00
53011;BME280;42803;55.762;38.084;2023-01-28T02:08:10;100258.72;;;-2.86;100.00
53011;BME280;42803;55.762;38.084;2023-01-28T02:10:54;100261.03;;;-2.87;100.00
53011;BME280;42803;55.762;38.084;2023-01-28T02:13:26;100262.69;;;-2.88;100.00
53011;BME280;42803;55.762;38.084;2023-01-28T02:16:00;100255.28;;;-2.92;100.00
53011;BME280;42803;55.762;38.084;2023-01-28T02:18:31;100259.47;;;-2.92;100.00
53011;BME280;42803;55.762;38.084;2023-01-28T02:21:24;100266.66;;;-2.90;100.00
53011;BME280;42803;55.762;38.084;2023-01-28T02:24:09;100269.91;;;-2.91;100.00
53011;BME280;42803;55.762;38.084;2023-01-28T02:26:56;100262.75;;;-2.93;100.00
53011;BME280;42803;55.762;38.084;2023-01-28T02:29:37;100269.47;;;-2.94;100.00
53011;BME280;42803;55.762;38.084;2023-01-28T02:32:14;100267.91;;;-2.99;100.00
53011;BME280;42803;55.762;38.084;2023-01-28T02:34:48;100269.75;;;-2.98;100.00
53011;BME280;42803;55.762;38.084;2023-01-28T02:37:21;100279.03;;;-2.99;100.00
53011;BME280;42803;55.762;38.084;2023-01-28T02:39:56;100271.28;;;-3.11;100.00
53011;BME280;42803;55.762;38.084;2023-01-28T02:42:28;100276.44;;;-3.17;100.00
53011;BME280;42803;55.762;38.084;2023-01-28T02:45:00;100270.66;;;-3.22;100.00
53011;BME280;42803;55.762;38.084;2023-01-28T02:47:30;100284.59;;;-3.20;100.00
53011;BME280;42803;55.762;38.084;2023-01-28T02:50:18;100280.88;;;-3.22;100.00
53011;BME280;42803;55.762;38.084;2023-01-28T02:52:57;100277.88;;;-3.25;100.00
53011;BME280;42803;55.762;38.084;2023-01-28T02:55:53;100287.69;;;-3.28;100.00
53011;BME280;42803;55.762;38.084;2023-01-28T02:58:30;100294.81;;;-3.20;100.00
53011;BME280;42803;55.762;38.084;2023-01-28T03:01:09;100290.66;;;-3.25;100.00
53011;BME280;42803;55.762;38.084;2023-01-28T03:03:49;100290.75;;;-3.36;100.00
53011;BME280;42803;55.762;38.084;2023-01-28T03:06:24;100295.44;;;-3.39;100.00
53011;BME280;42803;55.762;38.084;2023-01-28T03:08:58;100294.53;;;-3.39;100.00
53011;BME280;42803;55.762;38.084;2023-01-28T03:11:49;100302.22;;;-3.45;100.00
53011;BME280;42803;55.762;38.084;2023-01-28T03:14:38;100296.84;;;-3.41;100.00
53011;BME280;42803;55.762;38.084;2023-01-28T03:17:29;100305.03;;;-3.49;100.00
53011;BME280;42803;55.762;38.084;2023-01-28T03:20:19;100304.59;;;-3.52;100.00
53011;BME280;42803;55.762;38.084;2023-01-28T03:23:11;100300.09;;;-3.42;100.00
53011;BME280;42803;55.762;38.084;2023-01-28T03:26:00;100298.69;;;-3.40;100.00
53011;BME280;42803;55.762;38.084;2023-01-28T03:28:48;100308.94;;;-3.46;100.00
53011;BME280;42803;55.762;38.084;2023-01-28T03:31:36;100302.00;;;-3.47;100.00
53011;BME280;42803;55.762;38.084;2023-01-28T03:34:24;100296.94;;;-3.52;100.00
53011;BME280;42803;55.762;38.084;2023-01-28T03:37:12;100301.16;;;-3.58;100.00
53011;BME280;42803;55.762;38.084;2023-01-28T03:39:47;100311.94;;;-3.42;100.00
53011;BME280;42803;55.762;38.084;2023-01-28T03:42:18;100307.19;;;-3.58;100.00
53011;BME280;42803;55.762;38.084;2023-01-28T03:45:13;100315.13;;;-3.62;100.00
53011;BME280;42803;55.762;38.084;2023-01-28T03:47:45;100310.53;;;-3.70;100.00
53011;BME280;42803;55.762;38.084;2023-01-28T03:50:17;100315.59;;;-3.64;100.00
53011;BME280;42803;55.762;38.084;2023-01-28T03:52:55;100312.41;;;-3.75;100.00
53011;BME280;42803;55.762;38.084;2023-01-28T03:55:48;100313.56;;;-3.78;100.00
53011;BME280;42803;55.762;38.084;2023-01-28T03:58:18;100311.25;;;-3.77;100.00
53011;BME280;42803;55.762;38.084;2023-01-28T04:00:47;100313.63;;;-3.84;100.00
53011;BME280;42803;55.762;38.084;2023-01-28T04:03:18;100312.66;;;-3.79;100.00
53011;BME280;42803;55.762;38.084;2023-01-28T04:06:00;100315.19;;;-3.73;100.00
53011;BME280;42803;55.762;38.084;2023-01-28T04:08:58;100310.56;;;-3.76;100.00
53011;BME280;42803;55.762;38.084;2023-01-28T04:11:31;100312.47;;;-3.86;100.00
53011;BME280;42803;55.762;38.084;2023-01-28T04:14:03;100314.41;;;-3.96;100.00
53011;BME280;42803;55.762;38.084;2023-01-28T04:16:45;100304.22;;;-4.02;100.00
53011;BME280;42803;55.762;38.084;2023-01-28T04:19:15;100314.00;;;-4.10;100.00
53011;BME280;42803;55.762;38.084;2023-01-28T04:21:46;100308.91;;;-4.10;100.00
53011;BME280;42803;55.762;38.084;2023-01-28T04:24:16;100308.44;;;-4.08;100.00
53011;BME280;42803;55.762;38.084;2023-01-28T04:26:45;100307.94;;;-4.05;100.00
53011;BME280;42803;55.762;38.084;2023-01-28T04:29:15;100316.09;;;-4.13;100.00
53011;BME280;42803;55.762;38.084;2023-01-28T04:31:44;100320.56;;;-4.24;100.00
53011;BME280;42803;55.762;38.084;2023-01-28T04:34:17;100310.59;;;-4.22;100.00
53011;BME280;42803;55.762;38.084;2023-01-28T04:36:55;100315.97;;;-4.32;100.00
53011;BME280;42803;55.762;38.084;2023-01-28T04:39:51;100323.38;;;-4.33;100.00
53011;BME280;42803;55.762;38.084;2023-01-28T04:42:27;100323.19;;;-4.35;100.00
53011;BME280;42803;55.762;38.084;2023-01-28T04:45:05;100327.31;;;-4.35;100.00
53011;BME280;42803;55.762;38.084;2023-01-28T04:48:00;100321.31;;;-4.36;100.00
53011;BME280;42803;55.762;38.084;2023-01-28T04:50:41;100329.66;;;-4.37;100.00
53011;BME280;42803;55.762;38.084;2023-01-28T04:53:41;100328.94;;;-4.36;100.00
53011;BME280;42803;55.762;38.084;2023-01-28T04:56:42;100327.81;;;-4.38;100.00
53011;BME280;42803;55.762;38.084;2023-01-28T04:59:11;100335.00;;;-4.41;100.00
53011;BME280;42803;55.762;38.084;2023-01-28T05:01:41;100336.88;;;-4.46;100.00
53011;BME280;42803;55.762;38.084;2023-01-28T05:04:11;100342.44;;;-4.48;100.00
53011;BME280;42803;55.762;38.084;2023-01-28T05:06:40;100341.97;;;-4.51;100.00
53011;BME280;42803;55.762;38.084;2023-01-28T05:09:17;100349.63;;;-4.51;100.00
53011;BME280;42803;55.762;38.084;2023-01-28T05:11:48;100343.81;;;-4.50;100.00
53011;BME280;42803;55.762;38.084;2023-01-28T05:14:17;100346.56;;;-4.43;100.00
53011;BME280;42803;55.762;38.084;2023-01-28T05:17:02;100343.59;;;-4.46;100.00
53011;BME280;42803;55.762;38.084;2023-01-28T05:19:32;100345.94;;;-4.53;100.00
53011;BME280;42803;55.762;38.084;2023-01-28T05:22:02;100353.38;;;-4.60;100.00
53011;BME280;42803;55.762;38.084;2023-01-28T05:24:40;100353.16;;;-4.68;100.00
53011;BME280;42803;55.762;38.084;2023-01-28T05:27:09;100357.28;;;-4.62;100.00
53011;BME280;42803;55.762;38.084;2023-01-28T05:29:39;100355.00;;;-4.67;100.00
53011;BME280;42803;55.762;38.084;2023-01-28T05:32:08;100356.81;;;-4.66;100.00
53011;BME280;42803;55.762;38.084;2023-01-28T05:34:37;100354.53;;;-4.70;100.00
53011;BME280;42803;55.762;38.084;2023-01-28T05:37:11;100358.69;;;-4.70;100.00
53011;BME280;42803;55.762;38.084;2023-01-28T05:39:41;100361.00;;;-4.66;100.00
53011;BME280;42803;55.762;38.084;2023-01-28T05:42:10;100359.38;;;-4.66;100.00
53011;BME280;42803;55.762;38.084;2023-01-28T05:44:44;100362.16;;;-4.64;100.00
53011;BME280;42803;55.762;38.084;2023-01-28T05:47:35;100363.09;;;-4.63;100.00
53011;BME280;42803;55.762;38.084;2023-01-28T05:50:19;100359.63;;;-4.64;100.00
53011;BME280;42803;55.762;38.084;2023-01-28T05:53:27;100372.81;;;-4.61;100.00
53011;BME280;42803;55.762;38.084;2023-01-28T05:55:58;100367.00;;;-4.66;100.00
53011;BME280;42803;55.762;38.084;2023-01-28T05:58:29;100365.63;;;-4.63;100.00
53011;BME280;42803;55.762;38.084;2023-01-28T06:01:03;100366.34;;;-4.64;100.00
53011;BME280;42803;55.762;38.084;2023-01-28T06:03:40;100370.75;;;-4.69;100.00
53011;BME280;42803;55.762;38.084;2023-01-28T06:06:09;100377.91;;;-4.67;100.00
53011;BME280;42803;55.762;38.084;2023-01-28T06:08:38;100375.81;;;-4.63;100.00
53011;BME280;42803;55.762;38.084;2023-01-28T06:11:10;100374.91;;;-4.64;100.00
53011;BME280;42803;55.762;38.084;2023-01-28T06:13:39;100374.91;;;-4.64;100.00
53011;BME280;42803;55.762;38.084;2023-01-28T06:16:41;100379.31;;;-4.69;100.00
53011;BME280;42803;55.762;38.084;2023-01-28T06:19:25;100379.97;;;-4.58;100.00
53011;BME280;42803;55.762;38.084;2023-01-28T06:21:55;100390.66;;;-4.61;100.00
53011;BME280;42803;55.762;38.084;2023-01-28T06:24:24;100384.63;;;-4.61;100.00
53011;BME280;42803;55.762;38.084;2023-01-28T06:26:55;100383.72;;;-4.68;100.00
53011;BME280;42803;55.762;38.084;2023-01-28T06:29:24;100381.88;;;-4.69;100.00
53011;BME280;42803;55.762;38.084;2023-01-28T06:31:53;100387.84;;;-4.62;100.00
53011;BME280;42803;55.762;38.084;2023-01-28T06:34:22;100389.72;;;-4.61;100.00
53011;BME280;42803;55.762;38.084;2023-01-28T06:36:51;100384.84;;;-4.66;100.00
53011;BME280;42803;55.762;38.084;2023-01-28T06:39:20;100378.63;;;-4.68;100.00
53011;BME280;42803;55.762;38.084;2023-01-28T06:41:49;100388.81;;;-4.68;100.00
53011;BME280;42803;55.762;38.084;2023-01-28T06:44:20;100387.63;;;-4.70;100.00
53011;BME280;42803;55.762;38.084;2023-01-28T06:46:50;100397.16;;;-4.69;100.00
53011;BME280;42803;55.762;38.084;2023-01-28T06:49:19;100403.16;;;-4.68;100.00
53011;BME280;42803;55.762;38.084;2023-01-28T06:51:48;100393.91;;;-4.68;100.00
53011;BME280;42803;55.762;38.084;2023-01-28T06:54:17;100393.69;;;-4.69;100.00
53011;BME280;42803;55.762;38.084;2023-01-28T06:56:46;100392.50;;;-4.66;100.00
53011;BME280;42803;55.762;38.084;2023-01-28T06:59:15;100391.81;;;-4.64;100.00
53011;BME280;42803;55.762;38.084;2023-01-28T07:01:46;100396.91;;;-4.64;100.00
53011;BME280;42803;55.762;38.084;2023-01-28T07:04:15;100388.81;;;-4.68;100.00
53011;BME280;42803;55.762;38.084;2023-01-28T07:06:44;100391.56;;;-4.60;100.00
53011;BME280;42803;55.762;38.084;2023-01-28T07:09:13;100385.53;;;-4.55;100.00
53011;BME280;42803;55.762;38.084;2023-01-28T07:11:42;100392.94;;;-4.51;100.00
53011;BME280;42803;55.762;38.084;2023-01-28T07:14:11;100397.56;;;-4.54;100.00
53011;BME280;42803;55.762;38.084;2023-01-28T07:16:40;100398.03;;;-4.51;100.00
53011;BME280;42803;55.762;38.084;2023-01-28T07:19:11;100400.09;;;-4.43;100.00
53011;BME280;42803;55.762;38.084;2023-01-28T07:21:40;100392.91;;;-4.40;100.00
53011;BME280;42803;55.762;38.084;2023-01-28T07:24:09;100396.38;;;-4.34;100.00
53011;BME280;42803;55.762;38.084;2023-01-28T07:26:38;100401.00;;;-4.37;100.00
53011;BME280;42803;55.762;38.084;2023-01-28T07:29:07;100403.53;;;-4.31;100.00
53011;BME280;42803;55.762;38.084;2023-01-28T07:31:37;100392.66;;;-4.30;100.00
53011;BME280;42803;55.762;38.084;2023-01-28T07:34:07;100394.25;;;-4.25;100.00
53011;BME280;42803;55.762;38.084;2023-01-28T07:36:38;100396.34;;;-4.23;100.00
53011;BME280;42803;55.762;38.084;2023-01-28T07:39:07;100400.47;;;-4.18;100.00
53011;BME280;42803;55.762;38.084;2023-01-28T07:41:36;100396.09;;;-4.19;100.00
53011;BME280;42803;55.762;38.084;2023-01-28T07:44:06;100393.53;;;-4.19;100.00
53011;BME280;42803;55.762;38.084;2023-01-28T07:46:35;100393.53;;;-4.19;100.00
53011;BME280;42803;55.762;38.084;2023-01-28T07:49:04;100391.44;;;-4.15;100.00
53011;BME280;42803;55.762;38.084;2023-01-28T07:51:33;100392.13;;;-4.17;100.00
53011;BME280;42803;55.762;38.084;2023-01-28T07:54:04;100387.28;;;-4.15;100.00
53011;BME280;42803;55.762;38.084;2023-01-28T07:56:33;100387.22;;;-4.04;100.00
53011;BME280;42803;55.762;38.084;2023-01-28T07:59:02;100386.72;;;-4.01;100.00
53011;BME280;42803;55.762;38.084;2023-01-28T08:01:31;100383.94;;;-3.97;100.00
53011;BME280;42803;55.762;38.084;2023-01-28T08:04:01;100387.63;;;-3.95;100.00
53011;BME280;42803;55.762;38.084;2023-01-28T08:06:30;100384.84;;;-3.91;100.00
53011;BME280;42803;55.762;38.084;2023-01-28T08:09:05;100384.84;;;-3.91;100.00
53011;BME280;42803;55.762;38.084;2023-01-28T08:11:37;100384.38;;;-3.88;100.00
53011;BME280;42803;55.762;38.084;2023-01-28T08:14:07;100381.56;;;-3.90;100.00
53011;BME280;42803;55.762;38.084;2023-01-28T08:16:36;100377.66;;;-3.88;100.00
53011;BME280;42803;55.762;38.084;2023-01-28T08:19:05;100373.63;;;-3.75;100.00
53011;BME280;42803;55.762;38.084;2023-01-28T08:21:34;100372.22;;;-3.73;100.00
53011;BME280;42803;55.762;38.084;2023-01-28T08:24:06;100370.06;;;-3.64;100.00
53011;BME280;42803;55.762;38.084;2023-01-28T08:26:36;100370.06;;;-3.64;100.00
53011;BME280;42803;55.762;38.084;2023-01-28T08:29:05;100370.47;;;-3.55;100.00
53011;BME280;42803;55.762;38.084;2023-01-28T08:31:34;100375.41;;;-3.27;100.00
53011;BME280;42803;55.762;38.084;2023-01-28T08:34:03;100369.06;;;-3.18;100.00
53011;BME280;42803;55.762;38.084;2023-01-28T08:36:32;100369.28;;;-3.16;100.00
53011;BME280;42803;55.762;38.084;2023-01-28T08:39:01;100370.06;;;-3.29;100.00
53011;BME280;42803;55.762;38.084;2023-01-28T08:41:32;100370.28;;;-3.27;100.00
53011;BME280;42803;55.762;38.084;2023-01-28T08:44:01;100366.50;;;-3.18;99.99
53011;BME280;42803;55.762;38.084;2023-01-28T08:46:30;100358.81;;;-3.12;99.80
53011;BME280;42803;55.762;38.084;2023-01-28T08:48:59;100368.31;;;-3.11;99.33
53011;BME280;42803;55.762;38.084;2023-01-28T08:51:29;100360.06;;;-2.98;98.71
53011;BME280;42803;55.762;38.084;2023-01-28T08:53:58;100363.72;;;-2.90;97.62
53011;BME280;42803;55.762;38.084;2023-01-28T08:56:28;100367.66;;;-2.92;96.87
53011;BME280;42803;55.762;38.084;2023-01-28T08:58:59;100363.56;;;-2.97;96.46
53011;BME280;42803;55.762;38.084;2023-01-28T09:01:29;100365.19;;;-2.98;96.64
53011;BME280;42803;55.762;38.084;2023-01-28T09:03:58;100355.19;;;-2.96;95.97
53011;BME280;42803;55.762;38.084;2023-01-28T09:06:27;100361.66;;;-2.92;95.78
53011;BME280;42803;55.762;38.084;2023-01-28T09:08:57;100367.41;;;-2.88;95.34
53011;BME280;42803;55.762;38.084;2023-01-28T09:11:27;100365.28;;;-2.85;94.28
53011;BME280;42803;55.762;38.084;2023-01-28T09:13:57;100359.75;;;-2.88;93.80
53011;BME280;42803;55.762;38.084;2023-01-28T09:16:27;100361.31;;;-2.83;93.76
53011;BME280;42803;55.762;38.084;2023-01-28T09:18:56;100358.47;;;-2.79;93.73
53011;BME280;42803;55.762;38.084;2023-01-28T09:21:26;100356.16;;;-2.77;92.97
53011;BME280;42803;55.762;38.084;2023-01-28T09:23:55;100349.84;;;-2.74;92.60
53011;BME280;42803;55.762;38.084;2023-01-28T09:26:25;100350.06;;;-2.72;92.81
53011;BME280;42803;55.762;38.084;2023-01-28T09:28:54;100348.41;;;-2.72;93.25
53011;BME280;42803;55.762;38.084;2023-01-28T09:31:23;100351.53;;;-2.80;94.06
53011;BME280;42803;55.762;38.084;2023-01-28T09:33:54;100348.81;;;-2.87;93.19
53011;BME280;42803;55.762;38.084;2023-01-28T09:36:24;100350.41;;;-2.82;93.26
53011;BME280;42803;55.762;38.084;2023-01-28T09:38:53;100348.53;;;-2.83;93.16
53011;BME280;42803;55.762;38.084;2023-01-28T09:41:25;100351.97;;;-2.77;92.57
53011;BME280;42803;55.762;38.084;2023-01-28T09:44:04;100346.09;;;-2.94;92.65
53011;BME280;42803;55.762;38.084;2023-01-28T09:46:36;100346.75;;;-2.89;92.56
53011;BME280;42803;55.762;38.084;2023-01-28T09:49:15;100338.03;;;-2.79;92.31
53011;BME280;42803;55.762;38.084;2023-01-28T09:51:48;100346.97;;;-2.88;92.86
53011;BME280;42803;55.762;38.084;2023-01-28T09:54:27;100341.69;;;-2.95;92.20
53011;BME280;42803;55.762;38.084;2023-01-28T09:57:02;100341.75;;;-3.01;92.46
53011;BME280;42803;55.762;38.084;2023-01-28T09:59:33;100335.47;;;-2.97;92.60
53011;BME280;42803;55.762;38.084;2023-01-28T10:02:19;100331.19;;;-2.91;93.72
53011;BME280;42803;55.762;38.084;2023-01-28T10:04:58;100331.38;;;-2.84;93.94
53011;BME280;42803;55.762;38.084;2023-01-28T10:07:37;100327.00;;;-2.90;92.82
53011;BME280;42803;55.762;38.084;2023-01-28T10:10:12;100321.59;;;-2.81;92.87
53011;BME280;42803;55.762;38.084;2023-01-28T10:12:53;100316.75;;;-2.85;91.75
53011;BME280;42803;55.762;38.084;2023-01-28T10:18:14;100316.03;;;-2.84;92.36
53011;BME280;42803;55.762;38.084;2023-01-28T10:20:52;100306.13;;;-2.70;92.03
53011;BME280;42803;55.762;38.084;2023-01-28T10:23:27;100313.81;;;-2.70;91.06
53011;BME280;42803;55.762;38.084;2023-01-28T10:26:04;100304.53;;;-2.51;91.17
53011;BME280;42803;55.762;38.084;2023-01-28T10:28:39;100309.28;;;-2.41;91.14
53011;BME280;42803;55.762;38.084;2023-01-28T10:31:11;100304.56;;;-2.56;92.12
53011;BME280;42803;55.762;38.084;2023-01-28T10:33:41;100306.28;;;-2.62;91.34
53011;BME280;42803;55.762;38.084;2023-01-28T10:36:12;100293.25;;;-2.58;91.04
53011;BME280;42803;55.762;38.084;2023-01-28T10:38:42;100294.78;;;-2.53;91.31
53011;BME280;42803;55.762;38.084;2023-01-28T10:41:17;100297.22;;;-2.42;91.04
53011;BME280;42803;55.762;38.084;2023-01-28T10:43:48;100298.75;;;-2.37;90.33
53011;BME280;42803;55.762;38.084;2023-01-28T10:46:20;100303.03;;;-2.43;90.00
53011;BME280;42803;55.762;38.084;2023-01-28T10:48:57;100300.69;;;-2.41;89.86
53011;BME280;42803;55.762;38.084;2023-01-28T10:51:33;100295.66;;;-2.29;90.09
53011;BME280;42803;55.762;38.084;2023-01-28T10:54:17;100292.31;;;-2.22;90.68
53011;BME280;42803;55.762;38.084;2023-01-28T10:56:47;100298.34;;;-2.22;90.73
53011;BME280;42803;55.762;38.084;2023-01-28T10:59:20;100295.00;;;-2.33;90.26
53011;BME280;42803;55.762;38.084;2023-01-28T11:01:52;100288.06;;;-2.34;89.49
53011;BME280;42803;55.762;38.084;2023-01-28T11:04:23;100286.28;;;-2.23;89.05
53011;BME280;42803;55.762;38.084;2023-01-28T11:06:57;100281.00;;;-2.30;89.81
53011;BME280;42803;55.762;38.084;2023-01-28T11:09:29;100286.38;;;-2.28;90.26
53011;BME280;42803;55.762;38.084;2023-01-28T11:12:10;100284.50;;;-2.29;89.82
53011;BME280;42803;55.762;38.084;2023-01-28T11:14:49;100277.63;;;-2.36;89.29
53011;BME280;42803;55.762;38.084;2023-01-28T11:17:20;100280.47;;;-2.40;88.99
53011;BME280;42803;55.762;38.084;2023-01-28T11:19:52;100271.50;;;-2.49;88.61
53011;BME280;42803;55.762;38.084;2023-01-28T11:22:29;100276.47;;;-2.38;89.22
53011;BME280;42803;55.762;38.084;2023-01-28T11:25:01;100272.81;;;-2.40;89.42
53011;BME280;42803;55.762;38.084;2023-01-28T11:27:32;100269.03;;;-2.36;89.26
53011;BME280;42803;55.762;38.084;2023-01-28T11:30:01;100264.56;;;-2.32;89.25
53011;BME280;42803;55.762;38.084;2023-01-28T11:32:31;100268.31;;;-2.35;89.09
53011;BME280;42803;55.762;38.084;2023-01-28T11:35:01;100266.97;;;-2.21;89.35
53011;BME280;42803;55.762;38.084;2023-01-28T11:37:34;100263.06;;;-2.24;89.58
53011;BME280;42803;55.762;38.084;2023-01-28T11:40:15;100266.19;;;-2.32;89.33
53011;BME280;42803;55.762;38.084;2023-01-28T11:42:50;100267.41;;;-2.36;89.53
53011;BME280;42803;55.762;38.084;2023-01-28T11:45:31;100263.25;;;-2.41;88.91
53011;BME280;42803;55.762;38.084;2023-01-28T11:48:13;100260.72;;;-2.41;88.90
53011;BME280;42803;55.762;38.084;2023-01-28T11:50:50;100261.22;;;-2.43;88.78
53011;BME280;42803;55.762;38.084;2023-01-28T11:53:52;100252.47;;;-2.33;88.77
53011;BME280;42803;55.762;38.084;2023-01-28T11:56:35;100248.41;;;-2.25;89.96
53011;BME280;42803;55.762;38.084;2023-01-28T11:59:33;100248.00;;;-2.47;89.33
53011;BME280;42803;55.762;38.084;2023-01-28T12:02:11;100249.41;;;-2.49;89.05
53011;BME280;42803;55.762;38.084;2023-01-28T12:04:58;100238.50;;;-2.48;89.62
53011;BME280;42803;55.762;38.084;2023-01-28T12:07:37;100228.50;;;-2.46;89.38
53011;BME280;42803;55.762;38.084;2023-01-28T12:10:21;100227.34;;;-2.48;89.54
53011;BME280;42803;55.762;38.084;2023-01-28T12:13:07;100227.56;;;-2.47;89.81
53011;BME280;42803;55.762;38.084;2023-01-28T12:15:57;100235.19;;;-2.59;89.53
53011;BME280;42803;55.762;38.084;2023-01-28T12:21:55;100229.06;;;-2.73;90.36
53011;BME280;42803;55.762;38.084;2023-01-28T12:24:46;100232.19;;;-2.81;91.19
53011;BME280;42803;55.762;38.084;2023-01-28T12:27:32;100223.56;;;-3.00;91.18
53011;BME280;42803;55.762;38.084;2023-01-28T12:30:11;100234.97;;;-3.03;92.33
53011;BME280;42803;55.762;38.084;2023-01-28T12:32:55;100217.53;;;-3.00;92.75
53011;BME280;42803;55.762;38.084;2023-01-28T12:35:34;100217.75;;;-2.99;93.25
53011;BME280;42803;55.762;38.084;2023-01-28T12:38:14;100212.75;;;-3.10;93.45
53011;BME280;42803;55.762;38.084;2023-01-28T12:40:52;100216.22;;;-3.09;93.07
53011;BME280;42803;55.762;38.084;2023-01-28T12:43:35;100210.66;;;-3.07;92.94
53011;BME280;42803;55.762;38.084;2023-01-28T12:46:11;100210.31;;;-3.21;93.25
53011;BME280;42803;55.762;38.084;2023-01-28T12:48:48;100215.78;;;-3.31;93.26
53011;BME280;42803;55.762;38.084;2023-01-28T12:51:21;100217.63;;;-3.30;94.11
53011;BME280;42803;55.762;38.084;2023-01-28T12:53:54;100217.81;;;-3.28;94.54
53011;BME280;42803;55.762;38.084;2023-01-28T12:56:28;100225.28;;;-3.30;94.29
53011;BME280;42803;55.762;38.084;2023-01-28T12:59:02;100210.41;;;-3.27;94.46
53011;BME280;42803;55.762;38.084;2023-01-28T13:01:38;100217.13;;;-3.27;94.67
53011;BME280;42803;55.762;38.084;2023-01-28T13:04:12;100214.59;;;-3.27;94.88
53011;BME280;42803;55.762;38.084;2023-01-28T13:06:48;100208.84;;;-3.32;95.17
53011;BME280;42803;55.762;38.084;2023-01-28T13:09:22;100212.16;;;-3.38;94.77
53011;BME280;42803;55.762;38.084;2023-01-28T13:11:55;100205.88;;;-3.40;95.42
53011;BME280;42803;55.762;38.084;2023-01-28T13:14:29;100207.06;;;-3.44;95.40